Time;durP1;ratioP1;P1;durP2;ratioP2;P2;SDS_P1;SDS_P2;PMS_P1;PMS_P2;Temp;Humidity;BMP_temperature;BMP_pressure;BME280_temperature;BME280_humidity;BME280_pressure;Samples;Min_cycle;Max_cycle;Signal;HPM_P1;HPM_P2
2022/06/14 00:03:10;;;;;;;3.92;1.95;;;17.40;99.90;;;;;;5070837;28;20108;-80
2022/06/14 00:05:41;;;;;;;3.08;1.50;;;17.40;99.90;;;;;;5052512;28;20113;-81
2022/06/14 00:08:09;;;;;;;2.58;1.50;;;17.40;99.90;;;;;;5070207;28;20489;-78
2022/06/14 00:10:35;;;;;;;3.83;1.63;;;17.40;99.90;;;;;;5076678;28;20044;-81
2022/06/14 00:13:03;;;;;;;5.95;1.58;;;17.40;99.90;;;;;;5074299;28;20132;-81
2022/06/14 00:15:30;;;;;;;5.53;1.55;;;17.30;99.90;;;;;;5075076;28;20170;-80
2022/06/14 00:17:57;;;;;;;2.35;1.30;;;17.30;99.90;;;;;;5075059;28;20051;-81
2022/06/14 00:20:23;;;;;;;5.05;1.63;;;17.30;99.90;;;;;;5074375;28;20048;-81
2022/06/14 00:22:51;;;;;;;4.70;1.45;;;17.30;99.90;;;;;;5076232;28;20041;-80
2022/06/14 00:25:23;;;;;;;4.35;1.50;;;17.30;99.90;;;;;;5073455;28;20128;-81
2022/06/14 00:27:51;;;;;;;8.10;2.13;;;17.20;99.90;;;;;;5069757;28;20141;-81
2022/06/14 00:30:20;;;;;;;4.70;1.88;;;17.30;99.90;;;;;;5075738;28;20046;-81
2022/06/14 00:32:47;;;;;;;4.38;1.50;;;17.20;99.90;;;;;;5074994;28;20063;-81
2022/06/14 00:35:14;;;;;;;3.63;1.58;;;17.20;99.90;;;;;;5075082;28;20060;-81
2022/06/14 00:37:40;;;;;;;5.95;1.73;;;17.20;99.90;;;;;;5075149;28;20057;-80
2022/06/14 00:40:10;;;;;;;5.38;2.08;;;17.20;99.90;;;;;;5073787;28;20049;-81
2022/06/14 00:42:37;;;;;;;5.30;1.30;;;17.20;99.90;;;;;;5076562;28;20076;-80
2022/06/14 00:45:29;;;;;;;5.22;1.50;;;17.10;99.90;;;;;;5073415;28;20047;-81
2022/06/14 00:48:02;;;;;;;4.70;1.58;;;17.10;99.90;;;;;;5033459;28;20229;-81
2022/06/14 00:50:44;;;;;;;3.58;1.77;;;17.10;99.90;;;;;;5070016;28;20072;-81
2022/06/14 00:53:40;;;;;;;4.82;1.83;;;17.10;99.90;;;;;;5072938;28;20051;-81
2022/06/14 00:56:23;;;;;;;5.07;1.92;;;17.10;99.90;;;;;;5049159;28;20045;-82
2022/06/14 00:59:06;;;;;;;4.20;1.85;;;17.00;99.90;;;;;;5073615;28;20055;-81
2022/06/14 01:01:37;;;;;;;5.93;1.70;;;17.00;99.90;;;;;;5070999;28;20105;-80
2022/06/14 01:04:16;;;;;;;5.15;1.90;;;17.00;99.90;;;;;;5073848;28;20174;-81
2022/06/14 01:06:48;;;;;;;4.57;1.80;;;17.00;99.90;;;;;;5068935;28;20048;-81
2022/06/14 01:09:36;;;;;;;7.55;1.52;;;17.00;99.90;;;;;;5074919;28;20131;-80
2022/06/14 01:12:19;;;;;;;4.40;1.80;;;16.80;99.90;;;;;;5070513;28;20049;-79
2022/06/14 01:14:52;;;;;;;5.20;1.80;;;16.80;99.90;;;;;;5073317;28;20063;-81
2022/06/14 01:17:20;;;;;;;4.88;1.90;;;16.70;99.90;;;;;;5049315;28;20049;-79
2022/06/14 01:19:47;;;;;;;4.28;1.73;;;16.70;99.90;;;;;;5075416;28;20063;-80
2022/06/14 01:22:14;;;;;;;3.58;1.55;;;16.70;99.90;;;;;;5073822;28;20048;-81
2022/06/14 01:24:42;;;;;;;4.13;1.65;;;16.60;99.90;;;;;;5056948;28;20048;-80
2022/06/14 01:27:11;;;;;;;4.70;1.85;;;16.50;99.90;;;;;;5074466;28;20072;-80
2022/06/14 01:29:41;;;;;;;6.00;2.22;;;16.50;99.90;;;;;;5073014;28;20309;-80
2022/06/14 01:32:11;;;;;;;6.10;2.13;;;16.50;99.90;;;;;;5075178;28;20139;-81
2022/06/14 01:34:40;;;;;;;;;;;16.40;99.90;;;;;;5070447;28;20049;-81
2022/06/14 01:37:06;;;;;;;7.18;1.80;;;16.30;99.90;;;;;;5057042;28;19920;-80
2022/06/14 01:39:35;;;;;;;6.60;2.28;;;16.40;99.90;;;;;;5056062;28;20446;-82
2022/06/14 01:42:14;;;;;;;7.28;2.42;;;16.20;99.90;;;;;;5074045;28;20040;-81
2022/06/14 01:44:47;;;;;;;4.07;1.88;;;16.20;99.90;;;;;;5069597;28;20045;-80
2022/06/14 01:47:14;;;;;;;5.53;1.70;;;16.10;99.90;;;;;;5074414;28;20040;-79
2022/06/14 01:52:57;;;;;;;3.95;2.10;;;16.00;99.90;;;;;;5071546;28;20128;-81
2022/06/14 01:55:39;;;;;;;3.47;1.92;;;16.00;99.90;;;;;;5070611;28;20075;-80
2022/06/14 01:58:17;;;;;;;5.40;2.22;;;16.10;99.90;;;;;;5071637;28;20180;-80
2022/06/14 02:01:09;;;;;;;4.55;1.65;;;16.10;99.90;;;;;;5074193;28;20120;-81
2022/06/14 02:07:25;;;;;;;3.70;2.03;;;15.90;99.90;;;;;;5078407;28;20049;-81
2022/06/14 02:10:04;;;;;;;5.82;2.38;;;15.70;99.90;;;;;;5075434;28;20166;-80
2022/06/14 02:12:42;;;;;;;3.83;1.65;;;15.80;99.90;;;;;;5070882;28;20056;-79
2022/06/14 02:15:16;;;;;;;4.93;2.30;;;15.90;99.90;;;;;;5077665;28;20045;-79
2022/06/14 02:17:50;;;;;;;4.57;1.70;;;15.80;99.90;;;;;;5075247;28;20041;-81
2022/06/14 02:20:22;;;;;;;2.92;1.80;;;15.70;99.90;;;;;;5071877;28;20059;-78
2022/06/14 02:22:57;;;;;;;5.28;1.92;;;15.50;99.90;;;;;;5077231;28;20044;-80
2022/06/14 02:25:31;;;;;;;2.70;1.83;;;15.60;99.90;;;;;;5078240;28;20048;-81
2022/06/14 02:28:07;;;;;;;4.72;1.83;;;15.60;99.90;;;;;;5072545;28;20059;-81
2022/06/14 02:30:59;;;;;;;3.35;1.65;;;15.60;99.90;;;;;;5075942;28;20108;-79
2022/06/14 02:33:33;;;;;;;4.97;1.92;;;15.50;99.90;;;;;;5074346;28;20060;-81
2022/06/14 02:36:09;;;;;;;7.25;2.28;;;15.50;99.90;;;;;;5075021;28;20538;-79
2022/06/14 02:38:38;;;;;;;6.18;1.98;;;15.40;99.90;;;;;;5072158;28;20068;-79
2022/06/14 02:41:13;;;;;;;3.60;1.98;;;15.40;99.90;;;;;;5075989;28;20136;-81
2022/06/14 02:44:07;;;;;;;5.55;1.95;;;15.30;99.90;;;;;;5077936;28;20064;-80
2022/06/14 02:46:42;;;;;;;3.63;2.00;;;15.20;99.90;;;;;;5077533;28;20456;-80
2022/06/14 02:49:32;;;;;;;5.25;2.13;;;15.20;99.90;;;;;;5078254;28;20052;-78
2022/06/14 02:52:11;;;;;;;6.35;2.28;;;15.00;99.90;;;;;;5065052;28;20049;-81
2022/06/14 02:54:47;;;;;;;3.55;2.30;;;15.00;99.90;;;;;;5076305;28;20072;-80
2022/06/14 02:57:18;;;;;;;3.80;1.77;;;15.10;99.90;;;;;;5071582;28;20059;-80
2022/06/14 03:00:08;;;;;;;2.92;2.05;;;15.10;99.90;;;;;;5075607;28;20052;-81
2022/06/14 03:02:47;;;;;;;7.18;2.40;;;14.90;99.90;;;;;;5071526;28;20054;-80
2022/06/14 03:05:36;;;;;;;5.57;2.30;;;14.70;99.90;;;;;;5074129;28;20049;-81
2022/06/14 03:08:13;;;;;;;6.20;2.10;;;14.70;99.90;;;;;;5074489;28;20049;-81
2022/06/14 03:11:02;;;;;;;3.33;2.08;;;14.60;99.90;;;;;;5069852;28;20429;-81
2022/06/14 03:13:50;;;;;;;6.38;2.00;;;14.60;99.90;;;;;;5072924;28;20045;-80
2022/06/14 03:16:33;;;;;;;5.78;2.35;;;14.70;99.90;;;;;;5075309;28;20051;-81
2022/06/14 03:19:28;;;;;;;5.15;2.10;;;14.80;99.90;;;;;;5071990;28;20049;-78
2022/06/14 03:22:16;;;;;;;6.63;2.17;;;14.70;99.90;;;;;;5072479;28;20052;-80
2022/06/14 03:24:56;;;;;;;3.50;2.15;;;14.70;99.90;;;;;;5070765;28;20117;-80
2022/06/14 03:27:33;;;;;;;3.88;2.00;;;14.70;99.90;;;;;;5072852;28;20063;-80
2022/06/14 03:30:00;;;;;;;4.93;1.92;;;14.60;99.90;;;;;;5069851;28;20454;-81
2022/06/14 03:32:56;;;;;;;6.28;1.80;;;14.60;99.90;;;;;;5056759;28;20112;-81
2022/06/14 03:35:32;;;;;;;5.72;2.20;;;14.60;99.90;;;;;;5053350;28;20113;-81
2022/06/14 03:38:08;;;;;;;6.35;2.30;;;14.60;99.90;;;;;;5075953;28;20135;-80
2022/06/14 03:40:35;;;;;;;3.30;2.20;;;14.60;99.90;;;;;;5070932;28;20049;-79
2022/06/14 03:43:03;;;;;;;5.22;2.20;;;14.70;99.90;;;;;;5054464;28;20525;-80
2022/06/14 03:45:49;;;;;;;5.97;2.40;;;14.70;99.90;;;;;;5073573;28;20055;-80
2022/06/14 03:48:17;;;;;;;4.90;2.10;;;14.70;99.90;;;;;;5070780;28;20057;-81
2022/06/14 03:50:56;;;;;;;3.22;1.98;;;14.70;99.90;;;;;;5073661;28;20055;-81
2022/06/14 03:53:48;;;;;;;3.63;2.35;;;14.70;99.90;;;;;;5075666;28;20055;-80
2022/06/14 03:56:23;;;;;;;5.00;2.40;;;14.60;99.90;;;;;;5075362;28;20494;-80
2022/06/14 03:59:15;;;;;;;4.78;2.03;;;14.50;99.90;;;;;;5070418;28;20047;-80
2022/06/14 04:01:58;;;;;;;4.60;1.80;;;14.60;99.90;;;;;;5069428;28;20127;-81
2022/06/14 04:04:35;;;;;;;7.07;1.90;;;14.70;99.90;;;;;;5071572;28;20044;-81
2022/06/14 04:07:20;;;;;;;3.75;2.08;;;14.80;99.90;;;;;;5070179;28;20041;-79
2022/06/14 04:10:25;;;;;;;5.60;2.00;;;14.80;99.90;;;;;;5067692;28;20064;-81
2022/06/14 04:13:14;;;;;;;4.68;2.33;;;14.80;99.90;;;;;;5055649;28;20041;-80
2022/06/14 04:15:50;;;;;;;7.22;2.30;;;14.90;99.90;;;;;;5054569;28;20554;-81
2022/06/14 04:18:41;;;;;;;3.63;2.17;;;14.80;99.90;;;;;;5071835;28;20127;-79
2022/06/14 04:21:41;;;;;;;6.03;3.05;;;14.80;99.90;;;;;;5072745;28;20375;-78
2022/06/14 04:24:26;;;;;;;5.80;3.38;;;14.80;99.90;;;;;;5041171;28;20046;-81
2022/06/14 04:27:18;;;;;;;5.05;2.72;;;14.80;99.90;;;;;;5073012;28;20045;-81
2022/06/14 04:29:55;;;;;;;3.33;2.00;;;14.70;99.90;;;;;;5072476;28;20480;-81
2022/06/14 04:32:43;;;;;;;3.70;2.10;;;14.80;99.90;;;;;;5067802;28;20136;-80
2022/06/14 04:35:20;;;;;;;6.65;2.40;;;14.80;99.90;;;;;;5071193;28;20462;-77
2022/06/14 04:38:05;;;;;;;8.18;2.42;;;14.90;99.90;;;;;;5069760;28;20051;-79
2022/06/14 04:40:37;;;;;;;6.47;2.40;;;15.10;99.90;;;;;;5068303;28;20136;-81
2022/06/14 04:43:08;;;;;;;4.88;1.85;;;15.10;99.90;;;;;;5073118;28;20056;-80
2022/06/14 04:45:55;;;;;;;4.80;2.83;;;15.10;99.90;;;;;;5073210;28;20048;-81
2022/06/14 04:48:52;;;;;;;9.35;2.60;;;15.10;99.90;;;;;;5070475;28;20057;-80
2022/06/14 04:51:45;;;;;;;6.53;2.20;;;15.20;99.90;;;;;;5059924;28;20053;-80
2022/06/14 04:54:27;;;;;;;5.03;2.42;;;15.30;99.90;;;;;;5050378;28;20140;-81
2022/06/14 04:57:03;;;;;;;4.85;2.05;;;15.40;99.90;;;;;;5067709;28;20045;-81
2022/06/14 04:59:52;;;;;;;3.63;1.80;;;15.50;99.90;;;;;;5073629;28;20565;-79
2022/06/14 05:02:27;;;;;;;5.18;2.60;;;15.70;99.90;;;;;;5070312;28;20049;-80
2022/06/14 05:05:20;;;;;;;3.40;1.95;;;15.90;99.90;;;;;;5070021;28;20080;-82
2022/06/14 05:07:55;;;;;;;3.20;1.98;;;16.10;99.90;;;;;;5062462;28;20139;-80
2022/06/14 05:10:30;;;;;;;3.20;1.90;;;16.30;99.90;;;;;;5069914;28;20113;-80
2022/06/14 05:13:26;;;;;;;4.80;2.25;;;16.40;99.90;;;;;;5072818;28;20041;-81
2022/06/14 05:16:24;;;;;;;6.72;2.33;;;16.60;99.90;;;;;;5072855;28;20084;-80
2022/06/14 05:18:58;;;;;;;4.15;1.88;;;16.80;99.90;;;;;;5074729;28;20502;-81
2022/06/14 05:21:28;;;;;;;3.17;1.95;;;16.80;99.90;;;;;;5068948;28;20513;-80
2022/06/14 05:23:56;;;;;;;6.32;2.03;;;17.00;99.90;;;;;;5073370;28;20057;-82
2022/06/14 05:26:26;;;;;;;7.70;3.55;;;17.10;99.90;;;;;;5073512;28;20112;-80
2022/06/14 05:29:14;;;;;;;6.38;2.97;;;17.20;99.90;;;;;;5071634;28;20057;-81
2022/06/14 05:31:56;;;;;;;3.15;2.03;;;17.30;99.90;;;;;;5072365;28;20083;-81
2022/06/14 05:34:35;;;;;;;5.40;2.33;;;17.40;99.90;;;;;;5068883;28;20059;-80
2022/06/14 05:37:15;;;;;;;4.28;2.30;;;17.50;99.90;;;;;;5074746;28;20139;-79
2022/06/14 05:39:50;;;;;;;5.75;2.35;;;17.50;99.90;;;;;;5072166;28;20059;-81
2022/06/14 05:42:25;;;;;;;8.00;2.30;;;17.60;99.90;;;;;;5075948;28;20059;-79
2022/06/14 05:44:58;;;;;;;5.00;2.38;;;17.60;99.90;;;;;;5071297;28;20052;-79
2022/06/14 05:47:49;;;;;;;4.45;2.22;;;17.60;99.90;;;;;;5056304;28;20509;-79
2022/06/14 05:50:17;;;;;;;;;;;17.70;99.90;;;;;;5070560;28;20417;-78
2022/06/14 05:52:53;;;;;;;4.00;2.40;;;17.70;99.90;;;;;;5074816;28;20068;-80
2022/06/14 05:55:44;;;;;;;6.60;2.67;;;17.70;99.90;;;;;;5073090;28;20049;-80
2022/06/14 05:58:17;;;;;;;4.00;2.30;;;17.70;99.90;;;;;;5075140;28;20055;-80
2022/06/14 06:00:46;;;;;;;4.43;2.25;;;17.60;99.90;;;;;;5070645;28;20068;-78
2022/06/14 06:03:17;;;;;;;6.60;2.58;;;17.60;99.90;;;;;;5057964;28;20143;-81
2022/06/14 06:05:53;;;;;;;;;;;17.60;99.90;;;;;;5076602;28;20573;-80
2022/06/14 06:08:38;;;;;;;6.40;3.20;;;17.60;99.90;;;;;;5073796;28;19944;-78
2022/06/14 06:11:22;;;;;;;5.75;3.08;;;17.40;99.90;;;;;;5074885;28;20076;-81
2022/06/14 06:14:12;;;;;;;9.35;4.00;;;17.50;99.90;;;;;;5072819;28;20044;-80
2022/06/14 06:17:05;;;;;;;9.77;3.65;;;17.50;99.90;;;;;;5072189;28;20049;-80
2022/06/14 06:19:38;;;;;;;6.32;3.42;;;17.40;99.90;;;;;;5071462;28;20461;-81
2022/06/14 06:22:12;;;;;;;7.28;3.55;;;17.30;99.90;;;;;;5076149;28;20045;-81
2022/06/14 06:24:57;;;;;;;8.15;3.80;;;17.40;99.90;;;;;;5078431;28;20040;-81
2022/06/14 06:27:28;;;;;;;11.80;4.10;;;17.40;99.90;;;;;;5076205;28;20511;-80
2022/06/14 06:30:30;;;;;;;9.80;3.20;;;17.40;99.90;;;;;;5072772;28;20045;-81
2022/06/14 06:32:57;;;;;;;8.82;3.22;;;17.30;99.90;;;;;;5069514;28;20151;-80
2022/06/14 06:35:34;;;;;;;6.93;3.08;;;17.30;99.90;;;;;;5075919;28;20512;-79
2022/06/14 06:38:25;;;;;;;6.03;3.20;;;17.30;99.90;;;;;;5075623;28;20049;-80
2022/06/14 06:43:50;;;;;;;7.32;3.38;;;17.20;99.90;;;;;;5075031;28;20049;-81
2022/06/14 06:46:20;;;;;;;8.82;3.15;;;17.20;99.90;;;;;;5072954;28;20049;-79
2022/06/14 06:48:55;;;;;;;8.68;2.95;;;17.10;99.90;;;;;;5067940;28;20075;-80
2022/06/14 06:51:27;;;;;;;5.53;3.05;;;17.20;99.90;;;;;;5073973;28;20048;-80
2022/06/14 06:54:06;;;;;;;7.20;2.97;;;17.20;99.90;;;;;;5075137;28;20049;-79
2022/06/14 06:56:39;;;;;;;6.88;3.08;;;17.20;99.90;;;;;;5070498;28;20045;-79
2022/06/14 06:59:29;;;;;;;7.93;3.28;;;17.20;99.90;;;;;;5073561;28;20127;-81
2022/06/14 07:02:01;;;;;;;7.80;3.83;;;17.30;99.90;;;;;;5054726;28;20049;-82
2022/06/14 07:07:36;;;;;;;7.50;3.15;;;17.30;99.90;;;;;;5074828;28;20425;-80
2022/06/14 07:10:13;;;;;;;6.80;4.00;;;17.30;99.90;;;;;;5069782;28;20057;-80
2022/06/14 07:13:05;;;;;;;11.70;3.03;;;17.30;99.90;;;;;;5072244;28;20091;-81
2022/06/14 07:15:40;;;;;;;7.47;3.40;;;17.40;99.90;;;;;;5073606;28;20048;-80
2022/06/14 07:18:39;;;;;;;5.47;2.60;;;17.40;99.90;;;;;;5068356;28;20091;-80
2022/06/14 07:21:11;;;;;;;7.35;2.80;;;17.40;99.90;;;;;;5036270;28;20045;-80
2022/06/14 07:23:48;;;;;;;28.52;4.72;;;17.40;99.90;;;;;;5072334;28;20044;-81
2022/06/14 07:26:15;;;;;;;6.28;2.80;;;17.40;99.90;;;;;;5072754;28;20116;-79
2022/06/14 07:29:06;;;;;;;8.30;2.90;;;17.50;99.90;;;;;;5083221;28;20045;-80
2022/06/14 07:31:54;;;;;;;7.78;2.90;;;17.50;99.90;;;;;;5075593;28;20064;-81
2022/06/14 07:34:21;;;;;;;9.70;3.28;;;17.60;99.90;;;;;;5056760;28;20049;-82
2022/06/14 07:37:13;;;;;;;5.80;3.38;;;17.70;99.90;;;;;;5070135;28;20224;-79
2022/06/14 07:40:05;;;;;;;7.97;3.45;;;17.70;99.90;;;;;;5068432;28;20056;-80
2022/06/14 07:43:01;;;;;;;8.00;3.42;;;17.80;99.90;;;;;;5077399;28;20049;-81
2022/06/14 07:45:42;;;;;;;8.35;3.45;;;17.80;99.90;;;;;;5074230;28;20072;-81
2022/06/14 07:48:12;;;;;;;6.13;2.90;;;17.80;99.90;;;;;;5074091;28;20530;-81
2022/06/14 07:50:46;;;;;;;8.48;3.28;;;17.80;99.90;;;;;;5076806;28;20059;-79
2022/06/14 07:53:21;;;;;;;7.53;3.30;;;17.80;99.90;;;;;;5070594;28;20063;-81
2022/06/14 07:55:53;;;;;;;10.45;3.80;;;17.90;99.90;;;;;;5074182;28;20040;-80
2022/06/14 07:58:31;;;;;;;10.13;3.45;;;17.90;99.90;;;;;;5075003;28;20051;-78
2022/06/14 08:01:07;;;;;;;10.27;3.55;;;18.00;99.90;;;;;;5071354;28;20068;-81
2022/06/14 08:04:05;;;;;;;10.00;2.80;;;18.00;99.90;;;;;;5077017;28;20051;-82
2022/06/14 08:06:41;;;;;;;6.38;3.17;;;18.10;99.90;;;;;;5057240;28;20049;-81
2022/06/14 08:09:22;;;;;;;9.93;3.72;;;18.10;99.90;;;;;;5053380;28;20408;-80
2022/06/14 08:11:53;;;;;;;;;;;18.20;99.90;;;;;;5077124;28;20059;-82
2022/06/14 08:14:41;;;;;;;6.25;3.03;;;18.30;99.90;;;;;;5070267;28;20435;-82
2022/06/14 08:17:13;;;;;;;11.13;4.10;;;18.30;99.90;;;;;;5069404;28;20153;-81
2022/06/14 08:20:22;;;;;;;6.60;3.53;;;18.40;99.90;;;;;;5074754;28;20396;-82
2022/06/14 08:23:00;;;;;;;7.20;3.20;;;18.40;99.90;;;;;;5014727;28;20046;-81
2022/06/14 08:25:31;;;;;;;8.85;2.70;;;18.40;99.90;;;;;;5069682;28;20048;-80
2022/06/14 08:28:15;;;;;;;6.35;3.20;;;18.50;99.90;;;;;;5075002;28;20052;-81
2022/06/14 08:30:51;;;;;;;8.98;3.67;;;18.50;99.90;;;;;;5070462;28;20049;-80
2022/06/14 08:33:45;;;;;;;7.22;3.50;;;18.60;99.90;;;;;;5074423;28;20044;-82
2022/06/14 08:36:20;;;;;;;5.50;2.50;;;18.70;99.90;;;;;;5068886;28;20049;-82
2022/06/14 08:38:54;;;;;;;7.93;3.35;;;18.70;99.90;;;;;;5046813;28;20055;-80
2022/06/14 08:41:27;;;;;;;9.00;3.15;;;18.80;99.90;;;;;;5069057;28;20045;-79
2022/06/14 08:43:59;;;;;;;6.32;2.97;;;18.80;99.90;;;;;;5069488;28;20057;-80
2022/06/14 08:46:30;;;;;;;10.43;2.97;;;18.90;99.90;;;;;;5064740;28;20064;-80
2022/06/14 08:49:17;;;;;;;8.02;3.08;;;18.90;99.90;;;;;;5071021;28;20122;-80
2022/06/14 08:52:08;;;;;;;9.32;3.20;;;19.00;99.90;;;;;;5066249;28;20055;-80
2022/06/14 08:55:09;;;;;;;6.18;2.85;;;19.10;99.90;;;;;;5064071;28;20136;-78
2022/06/14 08:58:18;;;;;;;12.65;3.60;;;19.10;99.90;;;;;;5067947;28;20085;-81
2022/06/14 09:01:17;;;;;;;8.82;3.38;;;19.20;99.90;;;;;;5071108;28;20048;-80
2022/06/14 09:04:05;;;;;;;13.50;4.18;;;19.30;99.90;;;;;;5065563;28;20109;-80
2022/06/14 09:06:50;;;;;;;9.43;4.53;;;19.30;99.90;;;;;;5069233;28;20075;-78
2022/06/14 09:09:44;;;;;;;9.25;3.33;;;19.40;99.90;;;;;;5068708;28;20132;-80
2022/06/14 09:12:32;;;;;;;15.40;3.58;;;19.50;99.90;;;;;;5071828;28;20071;-78
2022/06/14 09:15:11;;;;;;;12.02;4.43;;;19.60;99.90;;;;;;5072380;28;20053;-79
2022/06/14 09:17:51;;;;;;;10.60;3.92;;;19.60;99.90;;;;;;5072084;28;20085;-80
2022/06/14 09:20:37;;;;;;;9.23;4.10;;;19.60;99.90;;;;;;5073298;28;20127;-79
2022/06/14 09:23:45;;;;;;;10.85;4.75;;;19.60;99.90;;;;;;5070182;28;20055;-80
2022/06/14 09:26:34;;;;;;;12.43;3.70;;;19.70;99.90;;;;;;4976141;28;20044;-80
2022/06/14 09:29:30;;;;;;;7.60;3.42;;;19.80;99.90;;;;;;5073818;28;20136;-79
2022/06/14 09:33:09;;;;;;;10.45;3.65;;;19.80;99.90;;;;;;5074450;28;20048;-80
2022/06/14 09:35:56;;;;;;;7.95;3.85;;;19.90;99.90;;;;;;5074774;28;20053;-80
2022/06/14 09:38:50;;;;;;;16.85;4.38;;;20.00;99.90;;;;;;5067915;28;20053;-80
2022/06/14 09:41:42;;;;;;;14.85;4.00;;;20.00;99.90;;;;;;5068560;28;20132;-80
2022/06/14 09:44:30;;;;;;;9.45;3.30;;;20.10;99.90;;;;;;5069210;28;20073;-81
2022/06/14 09:47:06;;;;;;;10.15;4.57;;;20.20;99.90;;;;;;5071727;28;20051;-81
2022/06/14 09:50:17;;;;;;;7.85;3.17;;;20.30;99.90;;;;;;5074465;28;20051;-79
2022/06/14 09:53:07;;;;;;;10.23;3.55;;;20.30;99.90;;;;;;5013525;28;20133;-80
2022/06/14 09:55:55;;;;;;;12.30;3.80;;;20.40;99.90;;;;;;5072270;28;20072;-82
2022/06/14 09:58:43;;;;;;;12.98;3.10;;;20.50;99.90;;;;;;5074548;28;20076;-78
2022/06/14 10:01:53;;;;;;;26.98;5.18;;;20.60;99.90;;;;;;5038333;28;20068;-79
2022/06/14 10:04:54;;;;;;;8.15;3.42;;;20.70;99.90;;;;;;5070334;28;20098;-79
2022/06/14 10:07:35;;;;;;;7.28;3.05;;;20.80;99.90;;;;;;5074571;28;20052;-80
2022/06/14 10:10:15;;;;;;;6.07;3.22;;;20.80;99.90;;;;;;5066283;28;20053;-78
2022/06/14 10:13:03;;;;;;;7.55;3.40;;;20.90;99.90;;;;;;5053359;28;20183;-77
2022/06/14 10:15:51;;;;;;;9.15;3.28;;;21.00;99.90;;;;;;5069241;28;20075;-78
2022/06/14 10:18:33;;;;;;;12.70;2.67;;;21.00;99.90;;;;;;5067849;28;20041;-78
2022/06/14 10:21:19;;;;;;;4.80;2.63;;;21.20;99.90;;;;;;5069954;28;20049;-79
2022/06/14 10:23:53;;;;;;;5.38;2.08;;;21.30;99.90;;;;;;5069963;28;20147;-77
2022/06/14 10:29:47;;;;;;;8.32;2.40;;;21.30;99.90;;;;;;5070923;28;20044;-78
2022/06/14 10:32:43;;;;;;;10.43;2.58;;;21.40;99.90;;;;;;5066049;28;20398;-77
2022/06/14 10:35:16;;;;;;;7.00;2.95;;;21.40;99.90;;;;;;5067438;28;20048;-78
2022/06/14 10:38:10;;;;;;;6.68;2.50;;;21.40;99.90;;;;;;5069943;28;20103;-79
2022/06/14 10:40:56;;;;;;;7.80;2.67;;;21.60;99.90;;;;;;5070227;28;20056;-79
2022/06/14 10:43:45;;;;;;;11.13;2.70;;;21.70;99.90;;;;;;5068915;28;20049;-79
2022/06/14 10:46:18;;;;;;;5.83;2.70;;;21.70;99.90;;;;;;5066481;28;20056;-78
2022/06/14 10:48:52;;;;;;;5.75;2.03;;;21.70;99.90;;;;;;5069308;28;20041;-79
2022/06/14 10:51:59;;;;;;;6.80;2.33;;;21.80;99.90;;;;;;5047877;28;20059;-77
2022/06/14 10:54:28;;;;;;;5.50;2.67;;;21.80;99.90;;;;;;5067986;28;20136;-79
2022/06/14 10:57:37;;;;;;;8.25;3.33;;;21.80;99.90;;;;;;5069753;28;20053;-78
2022/06/14 11:00:36;;;;;;;6.72;2.70;;;21.90;99.90;;;;;;5065577;28;20083;-78
2022/06/14 11:03:29;;;;;;;8.30;2.33;;;22.00;99.90;;;;;;5063804;28;20045;-78
2022/06/14 11:06:14;;;;;;;7.53;2.35;;;22.00;99.90;;;;;;5067915;28;20107;-78
2022/06/14 11:09:05;;;;;;;8.10;2.58;;;22.10;99.90;;;;;;5064836;28;20101;-78
2022/06/14 11:11:43;;;;;;;7.20;3.00;;;22.10;99.90;;;;;;5064777;28;20049;-79
2022/06/14 11:14:20;;;;;;;9.05;2.50;;;22.20;99.90;;;;;;5069986;28;20050;-77
2022/06/14 11:17:08;;;;;;;5.35;2.58;;;22.20;99.90;;;;;;5072392;28;20047;-78
2022/06/14 11:19:41;;;;;;;7.40;2.50;;;22.20;99.90;;;;;;5070635;28;20072;-79
2022/06/14 11:22:44;;;;;;;6.15;2.33;;;22.30;99.90;;;;;;5065247;28;20041;-80
2022/06/14 11:25:17;;;;;;;4.60;2.20;;;22.30;99.90;;;;;;5064728;28;20053;-78
2022/06/14 11:28:21;;;;;;;5.97;2.35;;;22.40;99.90;;;;;;5068176;28;20057;-78
2022/06/14 11:31:06;;;;;;;4.60;2.10;;;22.40;99.90;;;;;;5066955;28;20088;-77
2022/06/14 11:34:03;;;;;;;3.85;2.00;;;22.50;99.90;;;;;;5068184;28;20053;-80
2022/06/14 11:36:33;;;;;;;4.70;2.20;;;22.50;99.90;;;;;;5064235;28;20525;-79
2022/06/14 11:39:30;;;;;;;5.13;2.67;;;22.60;99.90;;;;;;5070957;28;20109;-79
2022/06/14 11:42:03;;;;;;;6.93;2.28;;;22.70;99.90;;;;;;5066992;28;20124;-78
2022/06/14 11:45:03;;;;;;;5.78;2.33;;;22.80;99.90;;;;;;5069582;28;20079;-78
2022/06/14 11:47:49;;;;;;;6.17;2.40;;;22.80;99.90;;;;;;5071688;28;20079;-77
2022/06/14 11:50:38;;;;;;;5.10;2.47;;;22.90;99.90;;;;;;5069256;28;20429;-78
2022/06/14 11:53:26;;;;;;;6.32;2.78;;;22.90;99.90;;;;;;5068973;28;20044;-81
2022/06/14 11:56:06;;;;;;;5.38;2.40;;;23.00;99.90;;;;;;5050582;28;20041;-80
2022/06/14 11:58:41;;;;;;;4.05;1.90;;;23.10;99.90;;;;;;5068198;28;20124;-78
2022/06/14 12:01:22;;;;;;;5.03;1.95;;;23.10;99.90;;;;;;5066613;28;20045;-78
2022/06/14 12:04:01;;;;;;;7.22;2.67;;;23.10;99.90;;;;;;5069683;28;20049;-79
2022/06/14 12:06:55;;;;;;;7.82;2.30;;;23.20;99.90;;;;;;5068041;28;20045;-78
2022/06/14 12:09:40;;;;;;;6.88;2.80;;;23.30;99.90;;;;;;5070556;28;20053;-79
2022/06/14 12:12:41;;;;;;;5.82;2.20;;;23.40;99.90;;;;;;5065809;28;20055;-79
2022/06/14 12:15:16;;;;;;;8.35;2.25;;;23.40;99.90;;;;;;5020483;28;20048;-80
2022/06/14 12:17:48;;;;;;;5.57;2.55;;;23.40;99.90;;;;;;5069646;28;20057;-79
2022/06/14 12:20:18;;;;;;;5.30;2.28;;;23.40;99.90;;;;;;5065776;28;20048;-80
2022/06/14 12:22:59;;;;;;;10.07;2.88;;;23.50;99.90;;;;;;5071932;28;20079;-78
2022/06/14 12:28:43;;;;;;;4.50;2.40;;;23.40;99.90;;;;;;5071501;28;20062;-80
2022/06/14 12:31:19;;;;;;;3.67;2.08;;;23.50;99.90;;;;;;5054657;28;20055;-80
2022/06/14 12:33:58;;;;;;;8.32;2.83;;;23.50;99.90;;;;;;5065552;28;20049;-78
2022/06/14 12:36:45;;;;;;;8.60;2.78;;;23.60;99.90;;;;;;5069092;28;20051;-77
2022/06/14 12:39:22;;;;;;;5.13;2.63;;;23.60;99.90;;;;;;5068555;28;20524;-79
2022/06/14 12:42:11;;;;;;;3.55;2.15;;;23.70;99.90;;;;;;5069470;28;20114;-79
2022/06/14 12:44:47;;;;;;;7.05;1.80;;;23.80;99.90;;;;;;5069337;28;20044;-78
2022/06/14 12:47:21;;;;;;;5.30;2.05;;;23.90;99.90;;;;;;5065805;28;20069;-79
2022/06/14 12:49:52;;;;;;;4.15;2.08;;;23.80;99.90;;;;;;5069051;28;20513;-78
2022/06/14 12:52:18;;;;;;;;;;;23.90;99.90;;;;;;5072510;28;20048;-79
2022/06/14 12:54:58;;;;;;;;;;;24.00;99.90;;;;;;5066284;28;19920;-79
2022/06/14 12:57:27;;;;;;;6.88;1.92;;;24.10;99.90;;;;;;5068607;28;19920;-78
2022/06/14 13:00:25;;;;;;;4.33;2.20;;;24.30;99.90;;;;;;5049183;28;20049;-78
2022/06/14 13:03:01;;;;;;;4.55;2.47;;;24.30;99.90;;;;;;5054252;28;20301;-81
2022/06/14 13:05:36;;;;;;;8.35;2.33;;;24.40;99.90;;;;;;5068358;28;20040;-81
2022/06/14 13:08:26;;;;;;;5.30;2.10;;;24.40;99.90;;;;;;5072502;28;20120;-82
2022/06/14 13:11:31;;;;;;;6.05;2.30;;;24.50;99.90;;;;;;5052665;28;20132;-81
2022/06/14 13:14:17;;;;;;;3.75;2.28;;;24.50;99.90;;;;;;5075296;28;20045;-81
2022/06/14 13:17:08;;;;;;;6.43;2.72;;;24.50;99.90;;;;;;5073239;28;20049;-81
2022/06/14 13:19:43;;;;;;;7.32;2.40;;;24.80;99.90;;;;;;5072593;28;20051;-80
2022/06/14 13:22:47;;;;;;;3.42;1.88;;;24.90;99.90;;;;;;5072067;28;20509;-81
2022/06/14 13:25:40;;;;;;;8.63;3.25;;;24.90;99.90;;;;;;5070874;28;20049;-81
2022/06/14 13:28:16;;;;;;;4.32;2.10;;;25.00;99.90;;;;;;5070240;28;20109;-79
2022/06/14 13:31:22;;;;;;;8.07;2.30;;;25.00;99.90;;;;;;5071718;28;20055;-79
2022/06/14 13:34:00;;;;;;;6.85;1.95;;;25.10;99.90;;;;;;5048649;28;20477;-81
2022/06/14 13:36:39;;;;;;;5.13;2.35;;;25.20;99.90;;;;;;5071066;28;20504;-79
2022/06/14 13:39:34;;;;;;;6.67;2.30;;;25.20;99.90;;;;;;5068757;28;20445;-81
2022/06/14 13:42:28;;;;;;;4.10;2.15;;;25.20;99.90;;;;;;5070962;28;20996;-81
2022/06/14 13:45:01;;;;;;;5.30;2.28;;;25.20;99.90;;;;;;5069700;28;20049;-80
2022/06/14 13:47:37;;;;;;;5.72;2.30;;;25.20;99.90;;;;;;5071737;28;20063;-80
2022/06/14 13:50:18;;;;;;;5.43;2.30;;;25.20;99.90;;;;;;5066219;28;20419;-81
2022/06/14 13:52:51;;;;;;;4.25;2.28;;;25.20;99.90;;;;;;5072456;28;20498;-83
2022/06/14 13:55:40;;;;;;;4.93;2.55;;;25.30;99.90;;;;;;5069019;28;20084;-79
2022/06/14 13:58:28;;;;;;;5.70;2.03;;;25.40;99.90;;;;;;5051631;28;20051;-80
2022/06/14 14:01:12;;;;;;;5.10;2.10;;;25.40;99.90;;;;;;5070321;28;20051;-82
2022/06/14 14:03:57;;;;;;;8.20;2.60;;;25.50;99.90;;;;;;5072711;28;20056;-83
2022/06/14 14:06:46;;;;;;;8.68;3.05;;;25.50;99.90;;;;;;5072780;28;20131;-82
2022/06/14 14:09:31;;;;;;;5.03;2.38;;;25.50;99.90;;;;;;5074840;28;20045;-82
2022/06/14 14:12:04;;;;;;;5.45;2.30;;;25.50;99.90;;;;;;5077135;28;20049;-82
2022/06/14 14:15:24;;;;;;;3.95;2.15;;;25.50;99.90;;;;;;5070792;28;20045;-83
2022/06/14 14:18:02;;;;;;;3.83;2.25;;;25.50;99.90;;;;;;5029440;28;20300;-82
2022/06/14 14:21:06;;;;;;;5.47;2.20;;;25.50;99.90;;;;;;5065248;28;20050;-82
2022/06/14 14:23:51;;;;;;;8.05;3.17;;;25.60;99.90;;;;;;5076807;28;20486;-82